Startpagina
METAR-TAF:

METAR-TAF

Vliegvelden :

Khartoem, Soedan

Luchthaven van Khartoem

breedte: 15-36N, lengte: 032-33E, hoogte: 382 m

Actueel weer

Dit bericht is 9 minuten geleden gemaakt, om 00:00 UTC
Wind 17 kt uit het zuiden
Temperatuur 31°C
Vochtigheid 29%
Druk 1008 hPa
Zicht: 8000 m

METAR: HSSS 280000Z 18017KT 8000 31/11 Q1008 TEMPO 6000

Tijdstip: 03:09 (00:09 UTC)

Verwachting

Dit bericht is 1 uur en het 9 minuten geleden gemaakt, om 23:00 UTC
Verwachting geldig van 28 om 00 UTC tot 29 om 06 UTC
Wind 8 kt uit het westzuidwesten met uitschieters tot 18 kt
Zicht 10 km of meer
geen wolken onder 1500 m en geen cumulonimbus
Tijdelijke
van 28 om 03 UTC tot 28 om 07 UTC
Zicht: 6000 m

TAF: HSSS 272300Z 2800/2906 24008G18KT CAVOK TEMPO 2803/2807 6000

Waarnemingen en weersverwachtingen van meer dan 4000 vliegvelden (METAR en TAF).

De beschikbare stations zijn de gele en rode punten op de kaart.

Ga met uw muis naar het station om de naam te zien.

Klik dan om waarnemingen en weersverwachtingen te zien.

kaart wijzigen: klik op de groene knoppen met een zwart kruis om in te zoomen, op de groene knop met een streepje om uit te zoomen of op de groene pijlen voor aangrenzende kaarten.


METAR-TAF: